createdAt,value
2019-05-30T00:03:50.481Z,4.63
2019-05-30T00:08:56.250Z,4.97
2019-05-30T00:14:00.725Z,4.97
2019-05-30T00:19:05.043Z,6.13
2019-05-30T00:24:08.365Z,6.63
2019-05-30T00:29:11.328Z,5.53
2019-05-30T00:34:14.220Z,7.13
2019-05-30T00:39:16.987Z,4.13
2019-05-30T00:44:19.903Z,9.67
2019-05-30T00:49:22.635Z,6.43
2019-05-30T00:54:25.336Z,6.43
2019-05-30T00:59:28.247Z,3.57
2019-05-30T01:04:30.987Z,5.20
2019-05-30T01:09:33.746Z,4.40
2019-05-30T01:14:36.722Z,7.47
2019-05-30T01:19:39.436Z,7.83
2019-05-30T01:24:42.364Z,8.47
2019-05-30T01:29:47.327Z,4.57
2019-05-30T01:34:50.034Z,8.00
2019-05-30T01:39:52.895Z,9.77
2019-05-30T01:44:55.607Z,3.63
2019-05-30T01:49:58.352Z,6.17
2019-05-30T01:55:01.130Z,9.50
2019-05-30T02:00:10.898Z,6.83
2019-05-30T02:05:11.282Z,5.23
2019-05-30T02:10:15.459Z,6.70
2019-05-30T02:15:18.496Z,4.57
2019-05-30T02:20:21.268Z,3.13
2019-05-30T02:25:24.039Z,2.97
2019-05-30T02:30:26.659Z,6.10
2019-05-30T02:35:29.355Z,5.80
2019-05-30T02:40:32.188Z,6.20
2019-05-30T02:45:34.984Z,2.40
2019-05-30T02:50:37.797Z,3.03
2019-05-30T02:55:41.387Z,6.60
2019-05-30T03:00:44.314Z,3.03
2019-05-30T03:05:47.084Z,6.97
2019-05-30T03:10:49.892Z,4.37
2019-05-30T03:15:56.123Z,4.97
2019-05-30T03:20:58.863Z,5.20
2019-05-30T03:26:02.552Z,10.07
2019-05-30T03:31:14.034Z,7.57
2019-05-30T03:36:23.825Z,4.93
2019-05-30T03:41:17.598Z,4.30
2019-05-30T03:46:25.571Z,5.37
2019-05-30T03:51:30.573Z,8.23
2019-05-30T03:56:38.370Z,6.23
2019-05-30T04:01:54.350Z,8.90
2019-05-30T04:07:02.759Z,6.03
2019-05-30T04:12:34.190Z,9.27
2019-05-30T04:17:37.584Z,5.83
2019-05-30T04:22:40.492Z,5.00
2019-05-30T04:27:43.465Z,3.57
2019-05-30T04:32:46.166Z,6.03
2019-05-30T04:37:49.101Z,4.70
2019-05-30T04:42:52.163Z,6.10
2019-05-30T04:53:42.391Z,4.03
2019-05-30T04:58:45.444Z,8.10
2019-05-30T05:03:49.331Z,9.53
2019-05-30T05:08:51.960Z,6.70
2019-05-30T05:13:54.736Z,5.50
2019-05-30T05:18:57.446Z,4.47
2019-05-30T05:24:00.192Z,5.20
2019-05-30T05:29:04.057Z,6.60
2019-05-30T05:34:06.758Z,8.23
2019-05-30T05:39:09.416Z,6.10
2019-05-30T05:44:12.176Z,4.80
2019-05-30T05:49:16.284Z,4.30
2019-05-30T05:54:19.360Z,5.73
2019-05-30T05:59:23.020Z,12.47
2019-05-30T06:04:25.923Z,7.97
2019-05-30T06:09:28.836Z,3.37
2019-05-30T06:14:31.659Z,4.63
2019-05-30T06:19:45.986Z,6.53
2019-05-30T06:24:39.670Z,9.83
2019-05-30T06:29:42.309Z,7.93
2019-05-30T06:34:45.009Z,12.73
2019-05-30T06:39:48.193Z,5.80
2019-05-30T06:44:51.002Z,6.63
2019-05-30T06:49:54.016Z,6.43
2019-05-30T06:54:56.798Z,6.80
2019-05-30T06:59:59.874Z,4.63
2019-05-30T07:05:03.476Z,4.30
2019-05-30T07:10:07.367Z,8.07
2019-05-30T07:15:10.829Z,4.20
2019-05-30T07:20:13.783Z,14.33
2019-05-30T07:25:17.315Z,10.90
2019-05-30T07:30:20.113Z,9.00
2019-05-30T07:35:23.961Z,8.77
2019-05-30T07:40:26.753Z,7.80
2019-05-30T07:46:29.434Z,10.33
2019-05-30T07:51:39.119Z,6.57
2019-05-30T07:56:42.271Z,9.20
2019-05-30T08:08:09.019Z,14.27
2019-05-30T08:14:10.669Z,9.90
2019-05-30T08:19:15.762Z,11.17
2019-05-30T08:24:26.440Z,13.30
2019-05-30T08:29:30.127Z,9.73
2019-05-30T08:34:34.522Z,8.20
2019-05-30T08:39:37.844Z,7.90
2019-05-30T08:51:40.750Z,6.63
2019-05-30T08:56:43.580Z,7.13
2019-05-30T09:01:52.873Z,4.73
2019-05-30T09:06:52.061Z,8.50
2019-05-30T09:11:54.810Z,4.83
2019-05-30T09:16:58.668Z,9.93
2019-05-30T09:22:01.506Z,13.43
2019-05-30T09:27:05.423Z,8.13
2019-05-30T09:32:08.256Z,7.80
2019-05-30T09:37:11.001Z,7.13
2019-05-30T09:42:13.683Z,7.43
2019-05-30T09:47:18.620Z,5.63
2019-05-30T09:52:21.326Z,9.40
2019-05-30T09:57:24.174Z,7.20
2019-05-30T10:02:26.913Z,8.53
2019-05-30T10:07:29.613Z,6.23
2019-05-30T10:12:33.378Z,8.27
2019-05-30T10:17:36.783Z,8.53
2019-05-30T10:22:44.733Z,11.80
2019-05-30T10:27:51.050Z,9.60
2019-05-30T10:32:54.046Z,13.87
2019-05-30T10:37:57.193Z,10.63
2019-05-30T10:43:13.167Z,10.73
2019-05-30T10:48:14.313Z,8.20
2019-05-30T10:53:16.982Z,11.03
2019-05-30T10:58:20.114Z,12.97
2019-05-30T11:03:24.427Z,10.57
2019-05-30T11:08:30.325Z,17.00
2019-05-30T11:13:33.228Z,13.40
2019-05-30T11:18:36.109Z,12.10
2019-05-30T11:23:38.900Z,12.43
2019-05-30T11:28:41.629Z,16.73
2019-05-30T11:33:44.303Z,15.03
2019-05-30T11:38:47.108Z,12.83
2019-05-30T11:43:51.203Z,12.87
2019-05-30T11:48:54.154Z,17.07
2019-05-30T11:53:57.911Z,12.93
2019-05-30T11:59:03.085Z,16.40
2019-05-30T12:04:07.315Z,15.00
2019-05-30T12:09:09.986Z,13.93
2019-05-30T12:14:12.769Z,10.10
2019-05-30T12:19:15.622Z,10.60
2019-05-30T12:24:21.713Z,15.07
2019-05-30T12:29:24.475Z,12.37
2019-05-30T12:34:39.975Z,11.73
2019-05-30T12:39:43.574Z,18.60
2019-05-30T12:44:46.522Z,22.40
2019-05-30T12:49:49.243Z,26.47
2019-05-30T12:54:52.125Z,31.43
2019-05-30T12:59:56.751Z,27.37
2019-05-30T13:05:04.854Z,38.77
2019-05-30T13:10:09.076Z,27.67
2019-05-30T13:15:15.984Z,27.63
2019-05-30T13:20:21.415Z,41.90
2019-05-30T13:25:25.130Z,41.00
2019-05-30T13:30:28.252Z,31.37
2019-05-30T13:35:31.375Z,29.50
2019-05-30T13:40:35.451Z,37.70
2019-05-30T13:45:38.084Z,34.27
2019-05-30T13:50:41.475Z,37.00
2019-05-30T13:55:44.224Z,28.87
2019-05-30T14:00:47.215Z,29.83
2019-05-30T14:05:51.122Z,27.47
2019-05-30T14:10:55.006Z,36.83
2019-05-30T14:15:57.855Z,26.67
2019-05-30T14:21:01.914Z,29.10
2019-05-30T14:26:05.333Z,31.33
2019-05-30T14:31:08.913Z,24.90
2019-05-30T14:36:13.302Z,35.50
2019-05-30T14:41:16.643Z,34.70
2019-05-30T14:46:20.137Z,27.33
2019-05-30T14:51:35.302Z,31.67
2019-05-30T14:56:37.418Z,27.37
2019-05-30T15:01:40.166Z,30.87
2019-05-30T15:06:43.806Z,27.57
2019-05-30T15:11:51.676Z,34.03
2019-05-30T15:16:54.905Z,32.90
2019-05-30T15:21:57.686Z,25.77
2019-05-30T15:27:01.202Z,29.63
2019-05-30T15:32:06.160Z,23.47
2019-05-30T15:37:27.267Z,32.00
2019-05-30T15:42:32.309Z,29.53
2019-05-30T15:47:35.115Z,27.83
2019-05-30T15:52:38.195Z,28.57
2019-05-30T15:57:40.937Z,31.97
2019-05-30T16:02:50.679Z,28.90
2019-05-30T16:07:54.560Z,28.13
2019-05-30T16:12:57.653Z,19.97
2019-05-30T16:18:01.033Z,19.27
2019-05-30T16:23:09.020Z,23.47
2019-05-30T16:28:13.749Z,21.30
2019-05-30T16:33:17.899Z,23.77
2019-05-30T16:44:30.092Z,20.73
2019-05-30T16:49:33.831Z,27.57
2019-05-30T16:54:37.318Z,24.03
2019-05-30T16:59:49.682Z,26.53
2019-05-30T17:05:15.855Z,41.00
2019-05-30T17:10:29.603Z,33.60
2019-05-30T17:15:26.848Z,32.20
2019-05-30T17:20:29.915Z,36.40
2019-05-30T17:25:32.644Z,26.07
2019-05-30T17:30:35.528Z,36.10
2019-05-30T17:35:39.241Z,23.93
2019-05-30T17:40:45.161Z,22.37
2019-05-30T17:45:46.570Z,23.20
2019-05-30T17:50:49.688Z,20.70
2019-05-30T17:55:52.571Z,13.53
2019-05-30T18:00:57.519Z,16.20
2019-05-30T18:06:00.089Z,16.67
2019-05-30T18:11:03.095Z,14.23
2019-05-30T18:16:05.924Z,15.40
2019-05-30T18:21:08.660Z,12.17
2019-05-30T18:26:11.310Z,15.60
2019-05-30T18:31:14.123Z,13.50
2019-05-30T18:36:16.794Z,15.73
2019-05-30T18:41:19.522Z,14.87
2019-05-30T18:46:23.042Z,8.43
2019-05-30T18:51:26.023Z,12.73
2019-05-30T18:56:28.925Z,11.97
2019-05-30T19:01:33.767Z,12.07
2019-05-30T19:06:36.896Z,17.20
2019-05-30T19:11:39.815Z,13.33
2019-05-30T19:16:43.180Z,19.83
2019-05-30T19:21:45.980Z,14.17
2019-05-30T19:26:48.830Z,12.97
2019-05-30T19:31:51.770Z,16.50
2019-05-30T19:36:54.626Z,15.57
2019-05-30T19:41:57.836Z,16.03
2019-05-30T19:47:01.213Z,13.07
2019-05-30T19:52:04.315Z,12.77
2019-05-30T19:57:07.155Z,10.53
2019-05-30T20:02:10.383Z,9.50
2019-05-30T20:07:13.357Z,9.77
2019-05-30T20:12:16.088Z,12.03
2019-05-30T20:17:18.849Z,7.53
2019-05-30T20:22:21.564Z,9.67
2019-05-30T20:27:24.651Z,10.43
2019-05-30T20:32:27.594Z,9.37
2019-05-30T20:37:32.480Z,8.80
2019-05-30T20:42:36.695Z,8.03
2019-05-30T20:47:42.187Z,6.37
2019-05-30T20:52:45.571Z,8.07
2019-05-30T20:57:48.636Z,10.90
2019-05-30T21:02:51.910Z,9.43
2019-05-30T21:07:55.181Z,11.27
2019-05-30T21:13:00.019Z,12.60
2019-05-30T21:18:04.522Z,7.90
2019-05-30T21:23:07.443Z,10.47
2019-05-30T21:28:10.291Z,13.53
2019-05-30T21:33:13.054Z,7.47
2019-05-30T21:38:15.886Z,5.23
2019-05-30T21:43:18.713Z,8.63
2019-05-30T21:48:21.514Z,9.60
2019-05-30T21:53:27.524Z,8.87
2019-05-30T21:58:30.374Z,11.50
2019-05-30T22:03:33.202Z,10.40
2019-05-30T22:08:36.195Z,8.40
2019-05-30T22:13:45.703Z,9.13
2019-05-30T22:18:48.540Z,10.60
2019-05-30T22:23:52.525Z,12.53
2019-05-30T22:28:55.970Z,14.30
2019-05-30T22:33:58.767Z,7.83
2019-05-30T22:39:01.675Z,10.30
2019-05-30T22:44:06.271Z,13.40
2019-05-30T22:49:09.248Z,17.00
2019-05-30T22:54:11.966Z,9.77
2019-05-30T22:59:15.039Z,14.07
2019-05-30T23:04:21.817Z,20.20
2019-05-30T23:09:24.556Z,9.20
2019-05-30T23:14:27.272Z,14.43
2019-05-30T23:19:29.942Z,15.40
2019-05-30T23:24:32.783Z,11.23
2019-05-30T23:29:36.087Z,12.17
2019-05-30T23:34:48.114Z,16.00
2019-05-30T23:39:51.032Z,21.90
2019-05-30T23:44:57.551Z,28.10
2019-05-30T23:50:00.438Z,23.87
2019-05-30T23:55:04.026Z,16.60
